Time;durP1;ratioP1;P1;durP2;ratioP2;P2;SDS_P1;SDS_P2;PMS_P1;PMS_P2;Temp;Humidity;BMP_temperature;BMP_pressure;BME280_temperature;BME280_humidity;BME280_pressure;Samples;Min_cycle;Max_cycle;Signal;HPM_P1;HPM_P2
2022/09/02 00:01:22;;;;;;;3.15;2.45;;;;;;;13.87;72.77;96379.69;5032809;28;20052;-80
2022/09/02 00:03:49;;;;;;;4.07;2.40;;;;;;;13.91;72.99;96386.09;5033257;28;20501;-80
2022/09/02 00:06:17;;;;;;;2.95;2.45;;;;;;;13.90;73.53;96379.03;5032557;28;20052;-80
2022/09/02 00:08:44;;;;;;;2.72;2.28;;;;;;;13.91;73.33;96375.16;5033457;28;20046;-80
2022/09/02 00:11:19;;;;;;;3.95;2.45;;;;;;;13.87;73.12;96371.47;5032667;28;20049;-80
2022/09/02 00:13:47;;;;;;;6.32;2.58;;;;;;;13.88;73.17;96370.34;5033574;28;20038;-80
2022/09/02 00:16:14;;;;;;;4.30;2.45;;;;;;;13.90;73.61;96374.34;5033130;28;20045;-80
2022/09/02 00:18:41;;;;;;;4.40;3.00;;;;;;;13.91;74.16;96369.69;5032161;28;20041;-79
2022/09/02 00:21:12;;;;;;;3.92;2.75;;;;;;;13.96;74.68;96372.19;5032990;28;20041;-78
2022/09/02 00:23:39;;;;;;;2.75;2.33;;;;;;;13.96;74.42;96366.72;5032070;28;20493;-79
2022/09/02 00:26:06;;;;;;;3.53;2.70;;;;;;;13.92;72.83;96363.06;5039978;28;20041;-79
2022/09/02 00:28:32;;;;;;;5.88;2.78;;;;;;;13.91;73.05;96361.47;5033806;28;20041;-79
2022/09/02 00:31:01;;;;;;;3.90;2.53;;;;;;;13.88;73.27;96370.34;5031250;28;20041;-79
2022/09/02 00:33:27;;;;;;;5.07;2.53;;;;;;;13.80;73.24;96372.84;5040365;28;20038;-79
2022/09/02 00:35:54;;;;;;;3.38;2.78;;;;;;;13.78;73.43;96366.91;5032852;28;20052;-78
2022/09/02 00:38:20;;;;;;;3.88;2.75;;;;;;;13.73;73.73;96363.56;5032071;28;20120;-79
2022/09/02 00:40:49;;;;;;;4.32;2.55;;;;;;;13.70;73.70;96370.53;5032546;28;20509;-79
2022/09/02 00:43:23;;;;;;;6.32;2.90;;;;;;;13.65;73.83;96368.00;5032001;28;20046;-80
2022/09/02 00:45:50;;;;;;;3.92;2.33;;;;;;;13.58;74.50;96373.25;5032515;28;20140;-79
2022/09/02 00:48:17;;;;;;;3.63;2.78;;;;;;;13.56;74.90;96364.53;5031775;28;20182;-79
2022/09/02 00:50:44;;;;;;;3.60;2.67;;;;;;;13.56;75.62;96361.81;5032364;28;20049;-79
2022/09/02 00:53:13;;;;;;;5.55;2.85;;;;;;;13.57;76.31;96357.94;5030593;28;20056;-79
2022/09/02 00:55:43;;;;;;;4.00;2.40;;;;;;;13.54;75.11;96366.84;5032019;28;20045;-79
2022/09/02 00:58:19;;;;;;;3.58;2.65;;;;;;;13.46;75.34;96370.44;5031705;28;20056;-78
2022/09/02 01:00:48;;;;;;;4.15;3.03;;;;;;;13.48;76.56;96366.25;5032325;28;20059;-78
2022/09/02 01:03:19;;;;;;;2.90;2.58;;;;;;;13.44;76.51;96362.56;5031604;28;20049;-79
2022/09/02 01:05:48;;;;;;;4.05;2.80;;;;;;;13.42;76.96;96364.84;5032017;28;20053;-79
2022/09/02 01:08:18;;;;;;;4.20;2.90;;;;;;;13.42;77.31;96364.06;5031634;28;20064;-79
2022/09/02 01:10:46;;;;;;;5.97;2.70;;;;;;;13.43;77.52;96365.66;5031992;28;20048;-79
2022/09/02 01:13:15;;;;;;;4.28;3.13;;;;;;;13.44;77.60;96367.25;5031460;28;20044;-78
2022/09/02 01:15:45;;;;;;;5.32;2.83;;;;;;;13.38;77.52;96363.13;5032314;28;20070;-79
2022/09/02 01:18:19;;;;;;;4.03;2.60;;;;;;;13.39;77.81;96367.44;5031363;28;20405;-79
2022/09/02 01:20:47;;;;;;;4.40;3.40;;;;;;;13.42;77.93;96364.06;5031990;28;20129;-79
2022/09/02 01:23:16;;;;;;;3.60;2.72;;;;;;;13.41;77.61;96367.91;5029322;28;20037;-79
2022/09/02 01:25:43;;;;;;;4.20;3.35;;;;;;;13.38;78.10;96363.13;5031450;28;20068;-79
2022/09/02 01:28:13;;;;;;;8.60;3.00;;;;;;;13.37;78.24;96356.84;5031287;28;20041;-78
2022/09/02 01:30:44;;;;;;;5.13;2.90;;;;;;;13.38;78.90;96360.38;5031759;28;20052;-78
2022/09/02 01:33:12;;;;;;;4.05;3.17;;;;;;;13.39;78.43;96361.97;5031232;28;20046;-79
2022/09/02 01:35:39;;;;;;;5.35;3.15;;;;;;;13.37;78.61;96354.13;5031208;28;20045;-79
2022/09/02 01:38:06;;;;;;;4.80;3.60;;;;;;;13.35;78.83;96358.31;5031026;28;20037;-79
2022/09/02 01:40:34;;;;;;;5.25;3.28;;;;;;;13.30;78.89;96357.38;5031475;28;20046;-80
2022/09/02 01:43:06;;;;;;;4.00;2.97;;;;;;;13.29;78.01;96357.72;5031270;28;20045;-78
2022/09/02 01:45:33;;;;;;;5.00;3.40;;;;;;;13.24;77.97;96353.25;5031336;28;20540;-78
2022/09/02 01:47:59;;;;;;;4.45;3.10;;;;;;;13.29;77.84;96355.78;5031349;28;20046;-80
2022/09/02 01:50:26;;;;;;;4.55;3.50;;;;;;;13.30;78.54;96351.91;5031201;28;20404;-79
2022/09/02 01:52:52;;;;;;;5.03;3.60;;;;;;;13.31;78.38;96352.72;5031837;28;20071;-80
2022/09/02 01:55:19;;;;;;;4.20;3.15;;;;;;;13.32;78.57;96338.72;5030750;28;20049;-78
2022/09/02 01:57:47;;;;;;;5.72;3.45;;;;;;;13.32;78.56;96344.19;5031788;28;20045;-79
2022/09/02 02:00:15;;;;;;;6.47;3.50;;;;;;;13.30;78.79;96342.91;5038679;28;20095;-78
2022/09/02 02:02:41;;;;;;;4.57;3.65;;;;;;;13.31;79.09;96341.75;5037507;28;20046;-79
2022/09/02 02:05:08;;;;;;;3.47;2.95;;;;;;;13.34;79.07;96343.84;5032705;28;20069;-78
2022/09/02 02:07:35;;;;;;;4.30;3.40;;;;;;;13.35;79.64;96336.44;5032946;28;20072;-78
2022/09/02 02:10:02;;;;;;;5.80;3.40;;;;;;;13.36;79.78;96329.81;5031320;28;20056;-79
2022/09/02 02:12:28;;;;;;;5.65;3.60;;;;;;;13.34;78.90;96334.84;5031714;28;20485;-79
2022/09/02 02:14:56;;;;;;;6.10;4.05;;;;;;;13.31;78.81;96328.91;5028832;28;20079;-79
2022/09/02 02:17:22;;;;;;;9.43;3.60;;;;;;;13.27;78.29;96330.72;5039599;28;20041;-79
2022/09/02 02:19:49;;;;;;;6.18;4.07;;;;;;;13.27;79.35;96330.72;5031150;28;20045;-79
2022/09/02 02:22:16;;;;;;;5.30;3.58;;;;;;;13.26;79.56;96329.13;5030702;28;20409;-78
2022/09/02 02:24:43;;;;;;;4.57;3.47;;;;;;;13.28;79.41;96326.84;5027852;28;20037;-79
2022/09/02 02:27:09;;;;;;;4.63;4.18;;;;;;;13.26;79.15;96322.84;5030630;28;20061;-79
2022/09/02 02:29:36;;;;;;;5.93;3.92;;;;;;;13.27;79.40;96325.25;5030667;28;20048;-79
2022/09/02 02:32:06;;;;;;;4.82;3.90;;;;;;;13.27;79.49;96322.50;5030335;28;20053;-78
2022/09/02 02:34:33;;;;;;;4.47;3.50;;;;;;;13.28;79.41;96315.91;5030485;28;20044;-79
2022/09/02 02:36:59;;;;;;;5.55;4.13;;;;;;;13.25;79.30;96321.25;5030467;28;20041;-79
2022/09/02 02:39:26;;;;;;;6.40;4.32;;;;;;;13.23;79.19;96323.53;5029780;28;20049;-78
2022/09/02 02:41:53;;;;;;;5.35;4.35;;;;;;;13.19;79.22;96317.09;5030383;28;20044;-79
2022/09/02 02:44:19;;;;;;;6.55;4.13;;;;;;;13.17;78.81;96322.91;5029841;28;20049;-79
2022/09/02 02:46:46;;;;;;;4.90;3.67;;;;;;;13.20;79.06;96324.94;5030440;28;20061;-79
2022/09/02 02:49:14;;;;;;;6.65;3.92;;;;;;;13.19;79.33;96328.81;5029788;28;20041;-79
2022/09/02 02:51:40;;;;;;;5.93;3.53;;;;;;;13.21;79.50;96326.59;5030362;28;20409;-79
2022/09/02 02:54:09;;;;;;;7.55;4.07;;;;;;;13.22;79.85;96313.72;5029520;28;20409;-77
2022/09/02 02:56:35;;;;;;;5.05;3.72;;;;;;;13.20;78.82;96319.47;5030287;28;20049;-79
2022/09/02 02:59:02;;;;;;;5.60;3.90;;;;;;;13.19;79.22;96312.41;5029808;28;20559;-77
2022/09/02 03:01:30;;;;;;;4.80;3.95;;;;;;;13.17;79.02;96316.63;5030208;28;20508;-79
2022/09/02 03:03:56;;;;;;;5.03;3.63;;;;;;;13.14;79.04;96314.56;5030238;28;20451;-79
2022/09/02 03:06:25;;;;;;;5.13;3.92;;;;;;;13.12;79.63;96312.16;5029905;28;20385;-79
2022/09/02 03:08:52;;;;;;;4.78;3.95;;;;;;;13.10;78.90;96311.69;5030185;28;20045;-79
2022/09/02 03:11:21;;;;;;;4.97;3.88;;;;;;;13.09;79.25;96310.09;5029547;28;20049;-79
2022/09/02 03:13:48;;;;;;;5.47;4.13;;;;;;;13.09;79.86;96306.56;5030274;28;20056;-78
2022/09/02 03:16:14;;;;;;;6.07;4.00;;;;;;;13.08;80.24;96303.03;5029922;28;20056;-79
2022/09/02 03:18:41;;;;;;;4.88;4.30;;;;;;;12.99;79.29;96297.63;5030237;28;20045;-79
2022/09/02 03:21:09;;;;;;;5.10;3.85;;;;;;;12.96;79.56;96306.50;5029429;28;20042;-78
2022/09/02 03:23:37;;;;;;;5.45;4.25;;;;;;;12.98;79.93;96303.44;5029688;28;20116;-78
2022/09/02 03:26:09;;;;;;;5.88;4.30;;;;;;;12.96;79.51;96302.97;5033573;28;20045;-79
2022/09/02 03:28:35;;;;;;;6.00;4.10;;;;;;;12.92;79.81;96308.31;5034050;28;20087;-80
2022/09/02 03:31:02;;;;;;;8.65;4.07;;;;;;;12.98;80.03;96297.97;5033533;28;20061;-75
2022/09/02 03:33:28;;;;;;;5.18;4.30;;;;;;;13.01;80.25;96300.03;5033573;28;20048;-79
2022/09/02 03:35:54;;;;;;;4.90;3.55;;;;;;;13.02;80.59;96299.69;5034510;28;20038;-78
2022/09/02 03:38:21;;;;;;;6.00;4.70;;;;;;;12.97;80.49;96307.31;5033337;28;20041;-79
2022/09/02 03:40:49;;;;;;;4.40;3.70;;;;;;;12.96;80.27;96297.50;5033676;28;20067;-79
2022/09/02 03:43:16;;;;;;;4.93;3.83;;;;;;;12.98;79.78;96292.50;5033140;28;20045;-78
2022/09/02 03:45:43;;;;;;;5.28;4.15;;;;;;;12.90;80.28;96283.25;5033708;28;20049;-80
2022/09/02 03:48:12;;;;;;;10.27;4.85;;;;;;;12.85;79.81;96293.59;5033144;28;20069;-78
2022/09/02 03:50:42;;;;;;;5.18;4.60;;;;;;;12.76;79.49;96297.19;5033352;28;20493;-79
2022/09/02 03:53:09;;;;;;;4.55;4.07;;;;;;;12.79;79.96;96302.00;5032904;28;20521;-78
2022/09/02 03:55:36;;;;;;;4.93;4.05;;;;;;;12.70;79.68;96297.72;5033415;28;20045;-79
2022/09/02 03:58:04;;;;;;;7.15;4.22;;;;;;;12.64;79.56;96299.84;5033006;28;20069;-78
2022/09/02 04:00:32;;;;;;;6.22;4.20;;;;;;;12.62;80.01;96298.56;5032962;28;20497;-78
2022/09/02 04:03:00;;;;;;;5.28;4.25;;;;;;;12.53;79.95;96295.91;5033236;28;20386;-79
2022/09/02 04:05:27;;;;;;;4.63;3.63;;;;;;;12.62;80.00;96299.38;5032699;28;20046;-81
2022/09/02 04:07:54;;;;;;;5.25;3.83;;;;;;;12.65;80.38;96293.25;5033226;28;20045;-80
2022/09/02 04:10:21;;;;;;;4.38;3.53;;;;;;;12.64;80.16;96294.38;5032374;28;20045;-81
2022/09/02 04:12:48;;;;;;;7.35;4.18;;;;;;;12.65;80.60;96293.25;5033013;28;20041;-80
2022/09/02 04:15:17;;;;;;;5.35;4.47;;;;;;;12.56;80.48;96292.50;5032615;28;20057;-80
2022/09/02 04:17:44;;;;;;;6.85;4.47;;;;;;;12.57;80.21;96291.38;5033083;28;20099;-80
2022/09/02 04:20:12;;;;;;;5.70;4.57;;;;;;;12.50;80.43;96286.44;5032531;28;20408;-80
2022/09/02 04:22:39;;;;;;;5.43;3.88;;;;;;;12.54;80.21;96292.03;5032903;28;20513;-80
2022/09/02 04:25:08;;;;;;;5.50;4.65;;;;;;;12.56;80.14;96289.78;5030889;28;20041;-81
2022/09/02 04:27:35;;;;;;;6.05;3.92;;;;;;;12.60;80.49;96287.97;5032829;28;20038;-81
2022/09/02 04:30:02;;;;;;;6.28;4.28;;;;;;;12.63;80.96;96295.50;5032293;28;20518;-77
2022/09/02 04:32:31;;;;;;;5.82;4.18;;;;;;;12.67;80.91;96296.44;5032582;28;20531;-81
2022/09/02 04:34:57;;;;;;;6.50;3.88;;;;;;;12.64;79.83;96291.66;5031815;28;20041;-80
2022/09/02 04:37:24;;;;;;;6.28;4.40;;;;;;;12.63;80.45;96294.69;5032016;28;20046;-81
2022/09/02 04:39:51;;;;;;;6.50;3.88;;;;;;;12.65;80.98;96298.72;5032740;28;20048;-81
2022/09/02 04:42:17;;;;;;;5.28;3.88;;;;;;;12.62;80.92;96299.38;5032061;28;20118;-80
2022/09/02 04:44:45;;;;;;;4.93;4.28;;;;;;;12.56;80.22;96300.69;5032342;28;20044;-81
2022/09/02 04:47:11;;;;;;;5.70;4.03;;;;;;;12.56;80.35;96302.63;5031851;28;20041;-81
2022/09/02 04:49:41;;;;;;;7.30;4.07;;;;;;;12.48;80.53;96299.63;5032374;28;20048;-81
2022/09/02 04:52:09;;;;;;;5.15;4.15;;;;;;;12.46;80.38;96298.34;5031769;28;20048;-81
2022/09/02 04:54:36;;;;;;;4.70;4.10;;;;;;;12.51;80.99;96298.97;5031852;28;20038;-81
2022/09/02 04:57:02;;;;;;;6.32;3.92;;;;;;;12.41;80.69;96304.00;5031870;28;20120;-79
2022/09/02 04:59:29;;;;;;;4.60;3.70;;;;;;;12.44;80.32;96308.81;5031931;28;20056;-80
2022/09/02 05:01:55;;;;;;;6.60;3.83;;;;;;;12.41;80.52;96302.06;5033152;28;20050;-81
2022/09/02 05:04:22;;;;;;;6.03;3.80;;;;;;;12.46;81.07;96306.53;5035253;28;20057;-81
2022/09/02 05:06:52;;;;;;;6.53;4.07;;;;;;;12.41;80.55;96309.47;5035596;28;20049;-80
2022/09/02 05:09:19;;;;;;;5.10;3.83;;;;;;;12.40;80.33;96308.66;5030022;28;20049;-80
2022/09/02 05:11:46;;;;;;;8.38;4.20;;;;;;;12.44;80.36;96303.34;5031565;28;20045;-81
2022/09/02 05:14:15;;;;;;;5.55;4.13;;;;;;;12.42;80.83;96308.31;5032973;28;20126;-81
2022/09/02 05:16:42;;;;;;;6.32;4.40;;;;;;;12.39;80.42;96317.19;5030327;28;20136;-77
2022/09/02 05:19:11;;;;;;;4.22;3.33;;;;;;;12.50;80.23;96308.28;5027941;28;20133;-77
2022/09/02 05:21:40;;;;;;;6.15;3.95;;;;;;;12.53;80.42;96307.63;5028872;28;20103;-77
2022/09/02 05:24:08;;;;;;;6.93;3.90;;;;;;;12.60;80.21;96309.84;5028498;28;20085;-77
2022/09/02 05:26:36;;;;;;;5.07;3.85;;;;;;;12.53;79.63;96309.56;5028754;28;20052;-77
2022/09/02 05:29:04;;;;;;;7.13;3.63;;;;;;;12.56;80.29;96305.38;5031321;28;20087;-79
2022/09/02 05:31:30;;;;;;;5.75;3.08;;;;;;;12.70;80.14;96306.72;5031655;28;20061;-80
2022/09/02 05:33:57;;;;;;;4.85;3.55;;;;;;;12.65;79.72;96306.91;5031117;28;20045;-77
2022/09/02 05:36:23;;;;;;;7.03;3.58;;;;;;;12.68;79.52;96313.63;5030922;28;20041;-78
2022/09/02 05:38:51;;;;;;;5.13;3.92;;;;;;;12.73;79.29;96311.50;5031515;28;20037;-76
2022/09/02 05:41:22;;;;;;;4.85;3.25;;;;;;;12.67;78.79;96306.56;5031358;28;20041;-83
2022/09/02 05:43:50;;;;;;;3.95;3.25;;;;;;;12.80;79.40;96311.78;5032219;28;20050;-79
2022/09/02 05:46:19;;;;;;;8.02;3.65;;;;;;;12.83;79.15;96310.31;5030011;28;20052;-79
2022/09/02 05:51:32;;;;;;;5.72;3.30;;;;;;;12.76;78.33;96308.09;5031064;28;20145;-80
2022/09/02 05:54:00;;;;;;;6.18;2.72;;;;;;;12.86;78.28;96314.31;5030531;28;20045;-79
2022/09/02 05:56:28;;;;;;;5.65;3.13;;;;;;;12.90;78.39;96309.78;5031006;28;20048;-81
2022/09/02 05:58:57;;;;;;;5.93;2.92;;;;;;;12.97;77.55;96307.31;5030950;28;20042;-78
2022/09/02 06:01:24;;;;;;;4.32;2.70;;;;;;;13.04;77.84;96308.34;5030540;28;20417;-77
2022/09/02 06:03:51;;;;;;;6.85;3.65;;;;;;;12.97;77.55;96305.38;5030919;28;20057;-78
2022/09/02 06:06:19;;;;;;;6.18;2.80;;;;;;;12.95;77.17;96312.31;5030319;28;20052;-79
2022/09/02 06:08:46;;;;;;;4.53;2.90;;;;;;;12.90;76.69;96305.13;5030791;28;20041;-78
2022/09/02 06:11:13;;;;;;;8.80;3.63;;;;;;;12.96;76.80;96308.44;5030220;28;20053;-78
2022/09/02 06:13:42;;;;;;;3.25;2.55;;;;;;;13.04;76.85;96310.28;5030685;28;20041;-79
2022/09/02 06:16:12;;;;;;;6.95;3.03;;;;;;;13.03;76.31;96312.22;5030570;28;20057;-79
2022/09/02 06:18:39;;;;;;;4.90;3.30;;;;;;;13.01;76.96;96310.97;5031263;28;20527;-77
2022/09/02 06:21:06;;;;;;;4.43;3.00;;;;;;;13.11;76.90;96304.31;5030023;28;20038;-75
2022/09/02 06:23:34;;;;;;;6.32;3.58;;;;;;;13.19;77.07;96301.47;5030416;28;20048;-76
2022/09/02 06:26:01;;;;;;;3.42;2.72;;;;;;;13.24;75.58;96297.75;5030497;28;20042;-76
2022/09/02 06:28:27;;;;;;;8.32;2.88;;;;;;;13.36;75.55;96291.53;5030046;28;20044;-75
2022/09/02 06:30:55;;;;;;;3.40;2.45;;;;;;;13.43;75.31;96283.59;5030676;28;20044;-76
2022/09/02 06:33:22;;;;;;;7.15;2.70;;;;;;;13.47;74.70;96290.00;5030016;28;20045;-75
2022/09/02 06:35:48;;;;;;;6.80;2.70;;;;;;;13.38;74.66;96292.00;5030385;28;20045;-78
2022/09/02 06:38:16;;;;;;;6.00;2.70;;;;;;;13.41;74.69;96297.59;5029752;28;20046;-75
2022/09/02 06:40:47;;;;;;;6.82;2.97;;;;;;;13.56;75.45;96287.94;5030416;28;20051;-76
2022/09/02 06:43:13;;;;;;;3.80;2.40;;;;;;;13.72;75.33;96288.88;5029969;28;20052;-75
2022/09/02 06:45:40;;;;;;;4.50;2.35;;;;;;;13.71;73.23;96284.56;5029905;28;20057;-75
2022/09/02 06:48:09;;;;;;;3.90;2.40;;;;;;;13.80;74.42;96290.72;5029384;28;20045;-76
2022/09/02 06:50:39;;;;;;;3.55;2.65;;;;;;;13.79;72.41;96299.28;5030103;28;20048;-76
2022/09/02 06:53:07;;;;;;;4.28;2.38;;;;;;;13.81;72.17;96289.59;5029775;28;20065;-76
2022/09/02 06:55:35;;;;;;;4.47;2.50;;;;;;;13.98;72.65;96298.72;5030029;28;20123;-76
2022/09/02 06:58:02;;;;;;;6.00;2.40;;;;;;;14.00;70.59;96291.78;5029637;28;20405;-75
2022/09/02 07:00:30;;;;;;;3.67;2.50;;;;;;;14.03;70.95;96293.03;5029433;28;20045;-77
2022/09/02 07:05:39;;;;;;;7.13;3.50;;;;;;;14.24;71.33;96301.94;5048749;28;20087;-76
2022/09/02 07:08:05;;;;;;;4.32;2.65;;;;;;;14.26;70.39;96301.59;5045815;28;20045;-75
2022/09/02 07:10:32;;;;;;;4.32;2.53;;;;;;;14.42;70.01;96297.03;5047361;28;20044;-75
2022/09/02 07:12:58;;;;;;;4.03;2.20;;;;;;;14.48;68.57;96312.13;5049085;28;20045;-76
2022/09/02 07:15:25;;;;;;;4.43;2.30;;;;;;;14.71;68.06;96304.19;5048305;28;20064;-75
2022/09/02 07:17:52;;;;;;;5.00;2.00;;;;;;;14.81;68.39;96300.97;5048931;28;20041;-76
2022/09/02 07:20:19;;;;;;;3.65;2.30;;;;;;;14.89;67.43;96299.25;5048740;28;20068;-73
2022/09/02 07:22:48;;;;;;;4.97;2.03;;;;;;;15.09;67.71;96297.50;5049769;28;20045;-74
2022/09/02 07:25:16;;;;;;;6.85;2.55;;;;;;;15.33;65.79;96300.13;5048528;28;20055;-74
2022/09/02 07:27:43;;;;;;;6.40;2.72;;;;;;;16.04;64.17;96303.19;5048420;28;20044;-73
2022/09/02 07:30:12;;;;;;;3.50;1.83;;;;;;;16.54;61.32;96298.88;5048960;28;20098;-74
2022/09/02 07:32:39;;;;;;;4.72;1.95;;;;;;;17.08;59.60;96306.41;5049582;28;20056;-74
2022/09/02 07:35:08;;;;;;;4.65;2.38;;;;;;;17.27;57.56;96309.13;5047638;28;20041;-74
2022/09/02 07:37:34;;;;;;;2.95;1.80;;;;;;;17.65;56.93;96308.31;5029803;28;20519;-76
2022/09/02 07:40:03;;;;;;;2.95;2.00;;;;;;;17.66;55.14;96306.38;5029930;28;20045;-74
2022/09/02 07:42:30;;;;;;;3.55;1.92;;;;;;;17.81;55.73;96300.00;5029570;28;20099;-74
2022/09/02 07:44:56;;;;;;;6.22;2.08;;;;;;;18.23;56.69;96310.16;5029507;28;20041;-74
2022/09/02 07:47:23;;;;;;;4.13;2.15;;;;;;;18.02;54.75;96304.28;5029253;28;20064;-75
2022/09/02 07:49:49;;;;;;;4.25;2.05;;;;;;;18.26;54.58;96293.66;5029320;28;20046;-77
2022/09/02 07:52:16;;;;;;;3.83;2.00;;;;;;;18.60;54.55;96296.56;5029128;28;20053;-75
2022/09/02 07:54:43;;;;;;;4.53;1.60;;;;;;;18.46;54.10;96297.13;5041220;28;20049;-74
2022/09/02 07:57:11;;;;;;;3.58;1.88;;;;;;;18.66;54.29;96294.28;5049047;28;20063;-74
2022/09/02 07:59:38;;;;;;;7.03;2.80;;;;;;;18.56;52.66;96297.66;5049286;28;20045;-75
2022/09/02 08:02:04;;;;;;;5.78;2.00;;;;;;;18.55;51.62;96298.84;5048542;28;20048;-75
2022/09/02 08:04:31;;;;;;;3.67;2.00;;;;;;;18.67;51.46;96301.38;5049277;28;20041;-75
2022/09/02 08:06:57;;;;;;;5.05;1.70;;;;;;;18.65;50.99;96303.72;5049547;28;20069;-75
2022/09/02 08:09:24;;;;;;;11.10;2.05;;;;;;;18.95;51.96;96303.75;5051178;28;20045;-74
2022/09/02 08:11:51;;;;;;;2.83;1.30;;;;;;;18.89;49.91;96302.50;5053029;28;20048;-75
2022/09/02 08:14:24;;;;;;;3.65;1.63;;;;;;;18.78;49.63;96307.88;5052481;28;20053;-77
2022/09/02 08:16:51;;;;;;;3.55;1.50;;;;;;;18.81;50.02;96300.84;5052863;28;20044;-75
2022/09/02 08:19:18;;;;;;;3.90;1.50;;;;;;;18.95;50.18;96304.59;5052209;28;20045;-76
2022/09/02 08:21:45;;;;;;;2.85;1.50;;;;;;;19.19;50.37;96303.31;5052679;28;20637;-76
2022/09/02 08:24:11;;;;;;;3.17;1.63;;;;;;;19.14;49.01;96302.84;5052048;28;20052;-77
2022/09/02 08:26:38;;;;;;;4.68;2.03;;;;;;;19.37;50.09;96299.97;5052465;28;20041;-76
2022/09/02 08:29:06;;;;;;;2.92;1.40;;;;;;;19.59;49.48;96312.06;5052223;28;20041;-75
2022/09/02 08:31:36;;;;;;;3.55;1.45;;;;;;;19.42;47.13;96310.69;5052620;28;20565;-74
2022/09/02 08:34:02;;;;;;;3.42;1.50;;;;;;;19.36;47.41;96299.16;5052199;28;20037;-75
2022/09/02 08:36:29;;;;;;;4.72;1.48;;;;;;;19.28;46.69;96306.59;5052326;28;20045;-75
2022/09/02 08:38:55;;;;;;;2.17;1.35;;;;;;;19.54;47.29;96305.72;5052447;28;20052;-75
2022/09/02 08:41:24;;;;;;;2.97;1.33;;;;;;;19.55;47.01;96296.25;5051834;28;20057;-74
2022/09/02 08:43:54;;;;;;;4.00;1.45;;;;;;;19.64;47.07;96298.75;5052401;28;20543;-75
2022/09/02 08:46:24;;;;;;;4.32;1.38;;;;;;;19.66;48.93;96290.88;5051927;28;20132;-75
2022/09/02 08:48:55;;;;;;;5.13;1.38;;;;;;;19.73;45.15;96296.50;5052051;28;20415;-77
2022/09/02 08:51:30;;;;;;;4.75;1.10;;;;;;;19.81;46.91;96297.34;5051958;28;20051;-75
2022/09/02 08:54:03;;;;;;;2.70;1.30;;;;;;;19.66;43.87;96290.88;5051937;28;20076;-75
2022/09/02 08:56:30;;;;;;;3.05;1.10;;;;;;;19.73;44.27;96284.63;5052036;28;20404;-77
2022/09/02 08:58:56;;;;;;;4.25;1.20;;;;;;;19.70;43.58;96285.41;5051978;28;20050;-78
2022/09/02 09:01:35;;;;;;;2.88;1.02;;;;;;;19.86;43.94;96285.94;5051379;28;20048;-76
2022/09/02 09:04:16;;;;;;;4.85;1.52;;;;;;;19.90;43.02;96283.22;5051525;28;20048;-76
2022/09/02 09:06:55;;;;;;;4.35;1.33;;;;;;;20.00;44.21;96282.53;5052003;28;20049;-76
2022/09/02 09:09:34;;;;;;;4.85;1.35;;;;;;;20.07;44.72;96282.59;5051503;28;20056;-77
2022/09/02 09:12:10;;;;;;;3.08;1.10;;;;;;;20.18;44.08;96279.91;5051653;28;20052;-76
2022/09/02 09:14:46;;;;;;;2.25;1.30;;;;;;;20.20;42.53;96280.31;5051613;28;20446;-75
2022/09/02 09:17:20;;;;;;;2.88;1.13;;;;;;;20.20;42.33;96277.56;5051315;28;20508;-74
2022/09/02 09:19:52;;;;;;;1.75;1.00;;;;;;;20.17;41.68;96276.38;5051861;28;20041;-77
2022/09/02 09:22:22;;;;;;;3.45;1.00;;;;;;;20.24;40.78;96270.88;5051207;28;20508;-76
2022/09/02 09:24:50;;;;;;;3.90;1.10;;;;;;;20.28;41.18;96270.91;5051353;28;20041;-75
2022/09/02 09:27:18;;;;;;;2.28;1.08;;;;;;;20.36;39.66;96267.03;5051158;28;20044;-75
2022/09/02 09:29:45;;;;;;;1.80;1.20;;;;;;;20.41;42.56;96269.44;5051558;28;20048;-78
2022/09/02 09:32:21;;;;;;;1.88;1.30;;;;;;;20.49;41.50;96270.31;5050911;28;20044;-75
2022/09/02 09:35:06;;;;;;;3.67;1.10;;;;;;;20.64;38.27;96271.22;5051524;28;20044;-74
2022/09/02 09:37:38;;;;;;;3.38;1.08;;;;;;;20.58;38.47;96268.00;5051454;28;20041;-78
2022/09/02 09:40:37;;;;;;;3.95;1.02;;;;;;;20.55;38.69;96269.56;5051320;28;20041;-73
2022/09/02 09:43:13;;;;;;;2.75;1.20;;;;;;;20.46;38.35;96271.88;4988969;28;20050;-77
2022/09/02 09:45:41;;;;;;;2.33;1.10;;;;;;;20.58;38.97;96268.81;5041316;28;20071;-74
2022/09/02 09:48:26;;;;;;;2.75;1.10;;;;;;;20.75;38.18;96256.25;5050696;28;20492;-75
2022/09/02 09:51:15;;;;;;;2.42;1.00;;;;;;;20.85;38.42;96260.25;5051011;28;20049;-75
2022/09/02 09:53:42;;;;;;;1.95;0.80;;;;;;;20.72;37.19;96250.69;5050972;28;20095;-76
2022/09/02 09:56:25;;;;;;;1.73;1.17;;;;;;;20.74;37.56;96259.41;5050248;28;20404;-78
2022/09/02 09:58:51;;;;;;;3.30;0.98;;;;;;;20.87;41.46;96249.59;5050913;28;20581;-74
2022/09/02 10:01:21;;;;;;;1.90;1.10;;;;;;;20.99;40.81;96248.50;5050223;28;20049;-74
2022/09/02 10:03:51;;;;;;;2.60;0.85;;;;;;;20.92;39.92;96242.91;5050444;28;20088;-74
2022/09/02 10:06:21;;;;;;;4.68;1.00;;;;;;;21.16;42.76;96252.50;5050183;28;20528;-77
2022/09/02 10:08:54;;;;;;;2.42;1.17;;;;;;;21.23;42.09;96247.00;5050864;28;20048;-75
2022/09/02 10:11:23;;;;;;;4.53;1.25;;;;;;;21.33;41.50;96251.81;5050080;28;20504;-76
2022/09/02 10:13:50;;;;;;;2.08;0.93;;;;;;;21.61;43.78;96251.09;5050558;28;20393;-76
2022/09/02 10:16:32;;;;;;;2.45;1.10;;;;;;;21.80;42.99;96244.41;5050059;28;20053;-75
2022/09/02 10:19:05;;;;;;;2.55;0.90;;;;;;;21.67;38.57;96245.97;5048116;28;20386;-76
2022/09/02 10:21:49;;;;;;;3.03;0.98;;;;;;;21.73;39.33;96241.63;5050439;28;20060;-76
2022/09/02 10:24:35;;;;;;;2.58;1.00;;;;;;;21.65;38.68;96248.34;5049708;28;20072;-77
2022/09/02 10:27:07;;;;;;;1.85;1.08;;;;;;;21.45;40.05;96234.81;5049726;28;20048;-76
2022/09/02 10:29:54;;;;;;;2.17;0.90;;;;;;;21.43;38.28;96248.28;5050419;28;20091;-76
2022/09/02 10:32:36;;;;;;;2.78;1.08;;;;;;;21.58;40.22;96236.06;5049268;28;20052;-75
2022/09/02 10:35:10;;;;;;;3.10;0.90;;;;;;;21.50;39.38;96248.28;5049829;28;20048;-77
2022/09/02 10:37:47;;;;;;;3.70;0.88;;;;;;;21.50;39.28;96239.97;5050043;28;20520;-78
2022/09/02 10:40:18;;;;;;;2.65;1.10;;;;;;;21.41;38.94;96236.81;5049810;28;20676;-76
2022/09/02 10:42:57;;;;;;;2.03;1.00;;;;;;;21.17;36.70;96240.25;5050210;28;20041;-76
2022/09/02 10:45:30;;;;;;;1.98;0.80;;;;;;;21.21;37.35;96238.28;5049467;28;20048;-76
2022/09/02 10:48:11;;;;;;;2.45;0.95;;;;;;;21.15;37.76;96239.84;5050294;28;20041;-80
2022/09/02 10:50:44;;;;;;;2.72;0.95;;;;;;;21.18;38.99;96233.53;5049929;28;20045;-76
2022/09/02 10:53:25;;;;;;;4.10;1.00;;;;;;;21.07;38.57;96231.50;5049491;28;20051;-77
2022/09/02 10:55:57;;;;;;;2.90;1.10;;;;;;;21.03;37.95;96230.69;5029978;28;20045;-80
2022/09/02 10:58:36;;;;;;;2.20;0.82;;;;;;;20.89;36.26;96222.34;5029707;28;20550;-76
2022/09/02 11:01:03;;;;;;;1.48;0.95;;;;;;;21.09;39.31;96218.06;5029408;28;20048;-77
2022/09/02 11:03:37;;;;;;;4.20;1.65;;;;;;;20.90;37.10;96209.28;5029901;28;20049;-78
2022/09/02 11:06:10;;;;;;;4.03;1.08;;;;;;;21.03;38.24;96211.31;5029630;28;20076;-78
2022/09/02 11:08:43;;;;;;;2.10;1.05;;;;;;;21.09;40.01;96204.22;5029910;28;20045;-76
2022/09/02 11:11:14;;;;;;;4.82;1.42;;;;;;;21.27;39.52;96203.50;5029472;28;20045;-76
2022/09/02 11:13:58;;;;;;;4.18;1.85;;;;;;;21.39;38.92;96205.13;5029903;28;20050;-76
2022/09/02 11:16:29;;;;;;;1.20;1.00;;;;;;;21.51;39.79;96202.00;5029415;28;20044;-75
2022/09/02 11:19:01;;;;;;;2.22;0.98;;;;;;;21.47;39.47;96212.28;5029592;28;20041;-79
2022/09/02 11:21:36;;;;;;;6.10;1.03;;;;;;;21.52;37.38;96215.47;5029511;28;20068;-80
2022/09/02 11:24:11;;;;;;;7.32;1.10;;;;;;;21.47;37.48;96202.00;5035670;28;20399;-77
2022/09/02 11:26:42;;;;;;;2.92;0.90;;;;;;;21.32;38.20;96205.91;5049654;28;20049;-76
2022/09/02 11:29:14;;;;;;;2.15;0.88;;;;;;;21.45;39.94;96198.03;5049168;28;20048;-77
2022/09/02 11:31:44;;;;;;;1.83;0.95;;;;;;;21.40;40.22;96196.41;5049690;28;20060;-77
2022/09/02 11:34:20;;;;;;;3.20;1.35;;;;;;;21.29;39.12;96199.13;5049244;28;20045;-79
2022/09/02 11:36:47;;;;;;;1.77;0.80;;;;;;;21.36;39.12;96196.44;5050109;28;20048;-78
2022/09/02 11:39:19;;;;;;;3.08;1.10;;;;;;;21.38;36.96;96198.81;5047795;28;20176;-76
2022/09/02 11:42:01;;;;;;;3.10;1.05;;;;;;;21.27;38.61;96198.75;5049559;28;20048;-77
2022/09/02 11:44:53;;;;;;;3.85;1.23;;;;;;;21.44;38.27;96202.78;5051767;28;20136;-77
2022/09/02 11:47:41;;;;;;;3.60;1.20;;;;;;;21.33;37.43;96190.88;5052835;28;20049;-77
2022/09/02 11:50:22;;;;;;;2.03;0.70;;;;;;;21.47;38.74;96185.38;5052622;28;20138;-77